KLMT Airport (Crater Lake-Klamath Rgnl) Information

FAA: LMT - ICAO: KLMT

KLMT Airport Location

State Oregon
County Klamath
City Klamath Falls
KLMT Airport is 4 miles southeast of Klamath Falls, OR.
Latitude 42-09-22.1180N
Longitude 121-43-59.5370W
Elevation 4,095ft

KLMT Airport METARs

METAR KLMT 180627Z AUTO 30005KT 10SM -RA BKN012 OVC017 03/02 A2975 RMK AO2 P0002 T00330022 $
Altimeter 29.75"
Temperature 3.3°C (37.9°F)
Wind 300° at 5KT
Clouds broken at 1,200ft overcast at 1,700ft
Visibility 10.0mi
Time observed: 2021-10-18T06:27:00Z

KLMT Airport Details

Status Operational
Activation November 1937
Ownership Public
Usage Public
Chart KLAMATH FALLS
ATC on-site Yes
Beacon schedule sunset-sunrise
Beacon color clear green

KLMT Airport Contacts

Owner CITY OF KLAMATH FALLS
Owner address CITY HALL PO BOX 237, KLAMATH FALLS, OR 97601
Owner phone 541-883-5316
Manager JOHN ROBERTS
Manager address BOX 3000 DEE HIGHWAY, HOOD RIVER, OR 97031
Manager phone 503-354-1361

KLMT Airport (Crater Lake-Klamath Rgnl) Radio Frequencies

KLMT (Airport) Radio Frequencies

UNICOM 122.95
Common traffic advisory frequency (CTAF) 133.975